createdAt,value
2023-02-26T00:01:03.699Z,1.60
2023-02-26T00:03:30.249Z,1.30
2023-02-26T00:06:01.524Z,1.30
2023-02-26T00:08:28.326Z,1.30
2023-02-26T00:10:54.929Z,1.02
2023-02-26T00:13:21.706Z,1.20
2023-02-26T00:15:50.242Z,1.35
2023-02-26T00:18:17.483Z,1.15
2023-02-26T00:20:44.243Z,0.80
2023-02-26T00:23:17.569Z,1.20
2023-02-26T00:25:44.570Z,1.50
2023-02-26T00:28:11.242Z,1.60
2023-02-26T00:30:40.939Z,1.92
2023-02-26T00:33:07.771Z,0.98
2023-02-26T00:35:34.345Z,1.20
2023-02-26T00:38:00.749Z,1.10
2023-02-26T00:40:45.837Z,1.05
2023-02-26T00:43:18.362Z,1.73
2023-02-26T00:45:58.360Z,2.05
2023-02-26T00:48:31.062Z,1.65
2023-02-26T00:51:06.229Z,1.42
2023-02-26T00:55:58.782Z,2.20
2023-02-26T00:58:25.381Z,2.25
2023-02-26T01:00:52.092Z,2.30
2023-02-26T01:03:18.561Z,2.60
2023-02-26T01:05:45.082Z,1.90
2023-02-26T01:08:30.377Z,2.10
2023-02-26T01:10:57.863Z,2.67
2023-02-26T01:13:24.540Z,2.40
2023-02-26T01:15:55.728Z,3.53
2023-02-26T01:18:26.057Z,2.83
2023-02-26T01:21:01.309Z,2.67
2023-02-26T01:25:58.937Z,3.05
2023-02-26T01:28:26.108Z,2.60
2023-02-26T01:31:01.416Z,3.00
2023-02-26T01:33:31.849Z,2.80
2023-02-26T01:36:04.186Z,2.85
2023-02-26T01:38:43.691Z,2.70
2023-02-26T01:41:12.813Z,2.85
2023-02-26T01:43:58.056Z,2.90
2023-02-26T01:46:43.652Z,2.90
2023-02-26T01:51:44.114Z,2.42
2023-02-26T01:54:11.056Z,2.53
2023-02-26T01:56:38.242Z,2.17
2023-02-26T01:59:06.079Z,2.30
2023-02-26T02:01:33.177Z,2.60
2023-02-26T02:03:59.923Z,2.47
2023-02-26T02:06:28.029Z,1.92
2023-02-26T02:08:54.580Z,1.70
2023-02-26T02:11:21.170Z,2.33
2023-02-26T02:13:50.648Z,1.98
2023-02-26T02:16:23.573Z,1.80
2023-02-26T02:18:53.556Z,1.92
2023-02-26T02:21:25.855Z,1.90
2023-02-26T02:24:11.132Z,2.25
2023-02-26T02:26:53.145Z,2.00
2023-02-26T02:29:25.754Z,2.00
2023-02-26T02:31:55.265Z,1.95
2023-02-26T02:34:30.815Z,1.70
2023-02-26T02:37:02.713Z,1.80
2023-02-26T02:39:31.153Z,2.17
2023-02-26T02:42:04.473Z,2.10
2023-02-26T02:44:32.869Z,2.00
2023-02-26T02:47:00.196Z,2.20
2023-02-26T02:49:31.577Z,2.05
2023-02-26T02:52:08.022Z,1.88
2023-02-26T02:54:47.396Z,2.25
2023-02-26T02:57:17.781Z,2.53
2023-02-26T02:59:45.667Z,2.10
2023-02-26T03:02:22.248Z,2.30
2023-02-26T03:04:48.873Z,2.40
2023-02-26T03:07:15.435Z,2.50
2023-02-26T03:09:42.446Z,2.47
2023-02-26T03:12:08.887Z,2.28
2023-02-26T03:14:35.518Z,2.55
2023-02-26T03:17:21.124Z,2.63
2023-02-26T03:22:22.997Z,2.80
2023-02-26T03:24:58.638Z,2.85
2023-02-26T03:27:34.012Z,3.05
2023-02-26T03:30:15.945Z,2.90
2023-02-26T03:32:52.366Z,2.97
2023-02-26T03:35:22.983Z,3.00
2023-02-26T03:37:51.366Z,3.25
2023-02-26T03:40:40.295Z,3.45
2023-02-26T03:43:09.573Z,3.40
2023-02-26T03:45:38.134Z,3.22
2023-02-26T03:48:05.836Z,3.00
2023-02-26T03:50:37.584Z,3.60
2023-02-26T03:53:07.746Z,2.95
2023-02-26T03:55:43.914Z,2.97
2023-02-26T03:58:10.432Z,3.58
2023-02-26T04:00:38.233Z,3.00
2023-02-26T04:03:10.671Z,2.60
2023-02-26T04:05:40.843Z,3.85
2023-02-26T04:08:07.281Z,2.75
2023-02-26T04:10:37.829Z,2.90
2023-02-26T04:13:04.176Z,2.95
2023-02-26T04:15:30.572Z,3.15
2023-02-26T04:17:56.878Z,3.08
2023-02-26T04:20:23.478Z,3.42
2023-02-26T04:22:49.973Z,3.00
2023-02-26T04:25:16.416Z,3.03
2023-02-26T04:27:42.754Z,2.70
2023-02-26T04:30:09.493Z,2.80
2023-02-26T04:32:36.244Z,2.90
2023-02-26T04:35:02.716Z,3.38
2023-02-26T04:37:29.116Z,3.10
2023-02-26T04:39:58.410Z,2.58
2023-02-26T04:42:24.800Z,2.72
2023-02-26T04:44:51.153Z,2.50
2023-02-26T04:47:17.544Z,2.40
2023-02-26T04:49:43.940Z,2.35
2023-02-26T04:52:10.332Z,2.53
2023-02-26T04:54:37.825Z,2.42
2023-02-26T04:57:04.340Z,2.55
2023-02-26T04:59:30.796Z,2.60
2023-02-26T05:01:57.341Z,2.53
2023-02-26T05:04:23.768Z,2.63
2023-02-26T05:06:50.234Z,2.78
2023-02-26T05:09:16.899Z,2.58
2023-02-26T05:11:43.358Z,2.83
2023-02-26T05:14:09.704Z,3.33
2023-02-26T05:16:36.124Z,2.33
2023-02-26T05:19:02.476Z,2.80
2023-02-26T05:21:28.914Z,2.80
2023-02-26T05:23:55.417Z,2.38
2023-02-26T05:26:21.863Z,2.50
2023-02-26T05:28:51.425Z,4.85
2023-02-26T05:31:17.988Z,6.88
2023-02-26T05:33:44.990Z,5.07
2023-02-26T05:36:11.553Z,5.97
2023-02-26T05:38:37.892Z,4.85
2023-02-26T05:41:04.612Z,5.75
2023-02-26T05:43:31.145Z,4.13
2023-02-26T05:45:57.577Z,5.53
2023-02-26T05:48:23.963Z,6.40
2023-02-26T05:50:50.697Z,4.43
2023-02-26T05:53:17.226Z,4.85
2023-02-26T05:55:43.682Z,4.60
2023-02-26T05:58:10.418Z,4.43
2023-02-26T06:00:37.071Z,8.13
2023-02-26T06:03:03.690Z,3.47
2023-02-26T06:05:30.140Z,3.47
2023-02-26T06:07:56.533Z,3.85
2023-02-26T06:10:22.977Z,3.85
2023-02-26T06:12:49.392Z,13.55
2023-02-26T06:15:15.829Z,7.65
2023-02-26T06:17:42.236Z,4.25
2023-02-26T06:20:09.249Z,4.63
2023-02-26T06:22:35.636Z,7.95
2023-02-26T06:25:02.180Z,9.70
2023-02-26T06:27:28.590Z,5.22
2023-02-26T06:29:55.024Z,5.63
2023-02-26T06:32:24.276Z,7.97
2023-02-26T06:34:50.649Z,6.57
2023-02-26T06:37:17.084Z,12.38
2023-02-26T06:39:43.473Z,11.20
2023-02-26T06:42:09.853Z,6.75
2023-02-26T06:44:36.256Z,11.82
2023-02-26T06:47:02.738Z,8.13
2023-02-26T06:49:29.214Z,7.00
2023-02-26T06:51:55.611Z,6.53
2023-02-26T06:54:22.060Z,11.45
2023-02-26T06:56:48.423Z,7.90
2023-02-26T06:59:15.432Z,7.07
2023-02-26T07:01:41.785Z,6.40
2023-02-26T07:04:08.468Z,5.03
2023-02-26T07:06:35.082Z,5.15
2023-02-26T07:09:01.584Z,4.95
2023-02-26T07:11:27.979Z,4.78
2023-02-26T07:13:55.063Z,4.22
2023-02-26T07:16:21.543Z,4.18
2023-02-26T07:18:48.095Z,3.60
2023-02-26T07:21:14.588Z,3.80
2023-02-26T07:23:40.971Z,4.32
2023-02-26T07:26:08.979Z,4.30
2023-02-26T07:28:35.635Z,4.65
2023-02-26T07:31:02.194Z,3.35
2023-02-26T07:33:28.961Z,7.25
2023-02-26T07:35:55.438Z,6.60
2023-02-26T07:38:21.938Z,6.63
2023-02-26T07:40:48.621Z,4.00
2023-02-26T07:43:15.026Z,4.38
2023-02-26T07:45:41.441Z,6.05
2023-02-26T07:48:08.057Z,5.03
2023-02-26T07:50:34.426Z,4.57
2023-02-26T07:53:00.811Z,4.80
2023-02-26T07:55:27.838Z,3.25
2023-02-26T07:57:54.314Z,2.60
2023-02-26T08:00:21.162Z,2.63
2023-02-26T08:02:47.922Z,2.90
2023-02-26T08:05:14.473Z,5.28
2023-02-26T08:07:41.003Z,3.58
2023-02-26T08:10:08.709Z,6.80
2023-02-26T08:12:36.599Z,3.25
2023-02-26T08:15:03.264Z,4.65
2023-02-26T08:17:29.651Z,4.72
2023-02-26T08:19:56.088Z,4.55
2023-02-26T08:22:23.674Z,5.40
2023-02-26T08:24:50.707Z,4.28
2023-02-26T08:27:17.231Z,5.22
2023-02-26T08:29:46.184Z,6.07
2023-02-26T08:32:13.133Z,5.72
2023-02-26T08:34:39.714Z,3.70
2023-02-26T08:37:06.166Z,2.60
2023-02-26T08:39:35.143Z,2.33
2023-02-26T08:42:01.568Z,5.55
2023-02-26T08:44:30.317Z,4.18
2023-02-26T08:46:56.970Z,3.33
2023-02-26T08:49:23.368Z,4.10
2023-02-26T08:51:49.781Z,4.20
2023-02-26T08:54:16.384Z,4.82
2023-02-26T08:56:42.771Z,6.13
2023-02-26T08:59:11.416Z,3.33
2023-02-26T09:01:37.846Z,2.83
2023-02-26T09:04:04.278Z,2.85
2023-02-26T09:06:31.462Z,2.67
2023-02-26T09:08:57.816Z,2.17
2023-02-26T09:11:24.534Z,2.53
2023-02-26T09:13:51.347Z,2.65
2023-02-26T09:17:53.859Z,2.28
2023-02-26T09:20:20.503Z,3.00
2023-02-26T09:22:47.112Z,1.58
2023-02-26T09:25:13.907Z,2.47
2023-02-26T09:27:40.460Z,1.90
2023-02-26T09:30:07.336Z,1.70
2023-02-26T09:32:34.482Z,2.20
2023-02-26T09:35:01.205Z,2.05
2023-02-26T09:37:28.072Z,2.13
2023-02-26T09:39:55.005Z,1.58
2023-02-26T09:42:40.194Z,2.50
2023-02-26T09:45:11.772Z,2.70
2023-02-26T09:47:43.341Z,1.30
2023-02-26T09:50:21.674Z,1.30
2023-02-26T09:52:51.152Z,2.85
2023-02-26T09:55:29.636Z,6.47
2023-02-26T09:57:59.073Z,3.95
2023-02-26T10:00:44.601Z,8.60
2023-02-26T10:03:20.390Z,3.38
2023-02-26T10:06:05.552Z,4.03
2023-02-26T10:08:38.242Z,1.33
2023-02-26T10:11:18.190Z,1.80
2023-02-26T10:13:57.521Z,1.35
2023-02-26T10:16:27.649Z,1.58
2023-02-26T10:18:58.175Z,1.77
2023-02-26T10:21:30.990Z,1.95
2023-02-26T10:23:59.021Z,1.80
2023-02-26T10:26:28.609Z,2.88
2023-02-26T10:29:01.979Z,3.38
2023-02-26T10:31:47.245Z,1.75
2023-02-26T10:34:13.820Z,1.67
2023-02-26T10:36:43.037Z,1.35
2023-02-26T10:39:28.370Z,2.00
2023-02-26T10:41:57.733Z,1.50
2023-02-26T10:44:27.666Z,1.77
2023-02-26T10:47:10.174Z,3.47
2023-02-26T10:49:58.690Z,2.28
2023-02-26T10:52:27.442Z,2.42
2023-02-26T10:55:00.304Z,1.65
2023-02-26T10:57:35.677Z,1.70
2023-02-26T11:02:35.094Z,1.73
2023-02-26T11:05:07.590Z,1.20
2023-02-26T11:07:36.631Z,1.02
2023-02-26T11:10:03.756Z,1.35
2023-02-26T11:12:32.309Z,1.25
2023-02-26T11:15:00.846Z,1.48
2023-02-26T11:17:29.689Z,1.17
2023-02-26T11:19:57.825Z,1.15
2023-02-26T11:22:26.048Z,1.50
2023-02-26T11:24:55.449Z,1.92
2023-02-26T11:27:32.072Z,1.40
2023-02-26T11:30:04.916Z,1.23
2023-02-26T11:32:37.269Z,1.45
2023-02-26T11:35:07.002Z,1.70
2023-02-26T11:37:37.991Z,1.42
2023-02-26T11:40:18.831Z,1.50
2023-02-26T11:42:49.479Z,1.55
2023-02-26T11:45:18.485Z,1.55
2023-02-26T11:47:45.042Z,1.67
2023-02-26T11:50:14.963Z,1.60
2023-02-26T11:52:42.645Z,1.23
2023-02-26T11:55:50.233Z,1.40
2023-02-26T11:58:18.614Z,1.50
2023-02-26T12:00:46.501Z,1.08
2023-02-26T12:03:24.130Z,1.30
2023-02-26T12:05:53.237Z,1.10
2023-02-26T12:08:30.689Z,1.20
2023-02-26T12:11:00.506Z,1.70
2023-02-26T12:13:26.939Z,2.88
2023-02-26T12:15:53.460Z,3.92
2023-02-26T12:18:20.003Z,2.15
2023-02-26T12:21:06.847Z,5.15
2023-02-26T12:23:33.412Z,5.30
2023-02-26T12:29:01.999Z,4.07
2023-02-26T12:31:47.541Z,4.93
2023-02-26T12:34:24.565Z,4.43
2023-02-26T12:36:51.077Z,4.18
2023-02-26T12:39:36.439Z,1.98
2023-02-26T12:42:18.075Z,2.53
2023-02-26T12:44:52.273Z,3.00
2023-02-26T12:47:32.058Z,0.75
2023-02-26T12:50:07.297Z,1.50
2023-02-26T12:52:36.815Z,1.85
2023-02-26T12:55:18.763Z,1.40
2023-02-26T12:57:50.189Z,0.90
2023-02-26T13:00:22.390Z,1.45
2023-02-26T13:02:55.037Z,1.38
2023-02-26T13:05:36.916Z,0.90
2023-02-26T13:08:09.393Z,1.10
2023-02-26T13:10:59.482Z,1.25
2023-02-26T13:13:48.640Z,1.38
2023-02-26T13:16:24.279Z,0.90
2023-02-26T13:19:06.204Z,0.90
2023-02-26T13:21:38.424Z,0.63
2023-02-26T13:24:11.282Z,0.80
2023-02-26T13:26:38.553Z,0.82
2023-02-26T13:29:09.837Z,0.82
2023-02-26T13:31:41.710Z,1.13
2023-02-26T13:34:13.980Z,0.90
2023-02-26T13:36:41.194Z,1.10
2023-02-26T13:39:29.833Z,1.90
2023-02-26T13:42:15.050Z,1.30
2023-02-26T13:44:59.973Z,1.52
2023-02-26T13:47:42.794Z,2.80
2023-02-26T13:50:18.741Z,3.38
2023-02-26T13:52:57.625Z,4.80
2023-02-26T13:55:44.452Z,1.70
2023-02-26T13:58:18.688Z,2.03
2023-02-26T14:00:58.322Z,1.63
2023-02-26T14:03:24.923Z,1.33
2023-02-26T14:05:53.831Z,1.50
2023-02-26T14:08:28.297Z,0.85
2023-02-26T14:10:56.885Z,0.85
2023-02-26T14:16:29.709Z,0.53
2023-02-26T14:19:18.430Z,0.80
2023-02-26T14:21:50.949Z,0.50
2023-02-26T14:24:37.148Z,0.98
2023-02-26T14:27:07.927Z,0.73
2023-02-26T14:29:42.562Z,1.23
2023-02-26T14:32:14.019Z,0.63
2023-02-26T14:34:46.485Z,1.05
2023-02-26T14:37:20.935Z,1.00
2023-02-26T14:40:23.866Z,0.68
2023-02-26T14:43:11.491Z,0.70
2023-02-26T14:45:39.369Z,0.80
2023-02-26T14:48:07.481Z,0.63
2023-02-26T14:50:57.142Z,0.90
2023-02-26T14:53:23.766Z,0.82
2023-02-26T14:56:09.318Z,0.57
2023-02-26T14:58:54.097Z,1.20
2023-02-26T15:01:39.273Z,2.00
2023-02-26T15:04:22.091Z,2.72
2023-02-26T15:07:08.813Z,2.92
2023-02-26T15:09:35.487Z,1.70
2023-02-26T15:12:01.986Z,0.93
2023-02-26T15:14:47.450Z,1.30
2023-02-26T15:17:20.196Z,1.65
2023-02-26T15:20:00.783Z,0.82
2023-02-26T15:22:33.229Z,2.45
2023-02-26T15:25:01.271Z,1.80
2023-02-26T15:27:30.617Z,1.52
2023-02-26T15:29:57.430Z,2.55
2023-02-26T15:32:28.732Z,1.35
2023-02-26T15:35:18.613Z,2.20
2023-02-26T15:37:49.753Z,1.10
2023-02-26T15:40:16.724Z,1.30
2023-02-26T15:42:45.255Z,1.20
2023-02-26T15:45:19.725Z,1.40
2023-02-26T15:47:50.503Z,1.30
2023-02-26T15:50:17.495Z,1.20
2023-02-26T15:52:44.122Z,1.20
2023-02-26T15:55:14.563Z,1.23
2023-02-26T15:57:41.173Z,1.08
2023-02-26T16:00:10.586Z,1.02
2023-02-26T16:02:41.095Z,1.10
2023-02-26T16:05:08.258Z,1.15
2023-02-26T16:07:37.334Z,1.10
2023-02-26T16:10:08.514Z,1.10
2023-02-26T16:12:40.506Z,0.82
2023-02-26T16:15:25.326Z,1.05
2023-02-26T16:17:52.826Z,1.10
2023-02-26T16:20:23.370Z,0.90
2023-02-26T16:22:51.324Z,1.02
2023-02-26T16:25:24.993Z,1.10
2023-02-26T16:27:58.911Z,0.93
2023-02-26T16:30:30.326Z,1.52
2023-02-26T16:32:58.428Z,1.00
2023-02-26T16:35:28.122Z,1.27
2023-02-26T16:37:55.201Z,1.48
2023-02-26T16:40:28.936Z,1.17
2023-02-26T16:43:24.734Z,1.35
2023-02-26T16:45:54.682Z,1.23
2023-02-26T16:48:28.774Z,1.30
2023-02-26T16:51:00.977Z,1.45
2023-02-26T16:53:35.156Z,1.30
2023-02-26T16:56:01.877Z,1.55
2023-02-26T16:58:30.707Z,1.98
2023-02-26T17:01:18.564Z,1.30
2023-02-26T17:03:50.699Z,1.77
2023-02-26T17:06:19.038Z,1.60
2023-02-26T17:08:52.549Z,1.40
2023-02-26T17:11:24.682Z,1.80
2023-02-26T17:14:03.838Z,1.77
2023-02-26T17:16:30.493Z,1.95
2023-02-26T17:18:57.258Z,1.90
2023-02-26T17:21:24.130Z,2.30
2023-02-26T17:23:50.916Z,1.80
2023-02-26T17:26:17.568Z,2.25
2023-02-26T17:28:44.307Z,1.90
2023-02-26T17:31:12.574Z,2.40
2023-02-26T17:33:41.472Z,2.45
2023-02-26T17:36:11.661Z,2.50
2023-02-26T17:38:38.257Z,2.50
2023-02-26T17:41:05.410Z,5.22
2023-02-26T17:43:33.092Z,15.00
2023-02-26T17:45:59.734Z,7.72
2023-02-26T17:48:26.620Z,5.03
2023-02-26T17:50:54.910Z,9.05
2023-02-26T17:53:22.491Z,14.57
2023-02-26T17:55:49.988Z,16.20
2023-02-26T17:58:18.459Z,14.85
2023-02-26T18:00:49.489Z,11.57
2023-02-26T18:03:16.409Z,8.25
2023-02-26T18:05:43.226Z,6.43
2023-02-26T18:08:15.501Z,3.00
2023-02-26T18:10:42.037Z,3.50
2023-02-26T18:13:10.291Z,3.70
2023-02-26T18:15:36.985Z,4.68
2023-02-26T18:18:06.041Z,4.00
2023-02-26T18:20:32.640Z,4.88
2023-02-26T18:22:59.251Z,5.70
2023-02-26T18:25:26.979Z,5.95
2023-02-26T18:27:55.200Z,5.80
2023-02-26T18:30:23.493Z,5.93
2023-02-26T18:32:50.070Z,3.60
2023-02-26T18:35:20.620Z,3.10
2023-02-26T18:37:47.165Z,8.35
2023-02-26T18:40:15.461Z,17.23
2023-02-26T18:42:42.104Z,7.90
2023-02-26T18:45:09.262Z,2.90
2023-02-26T18:47:35.952Z,2.10
2023-02-26T18:50:02.382Z,1.80
2023-02-26T18:52:29.098Z,1.73
2023-02-26T18:54:57.880Z,1.83
2023-02-26T18:57:24.421Z,2.28
2023-02-26T18:59:51.043Z,3.13
2023-02-26T19:02:17.735Z,3.65
2023-02-26T19:04:46.255Z,3.58
2023-02-26T19:07:13.643Z,3.67
2023-02-26T19:09:40.279Z,3.47
2023-02-26T19:12:08.343Z,3.78
2023-02-26T19:14:36.014Z,4.78
2023-02-26T19:17:02.591Z,3.63
2023-02-26T19:19:29.911Z,3.28
2023-02-26T19:21:57.775Z,3.42
2023-02-26T19:24:24.516Z,3.00
2023-02-26T19:26:51.161Z,4.60
2023-02-26T19:29:18.516Z,4.82
2023-02-26T19:31:45.381Z,4.05
2023-02-26T19:34:12.745Z,5.47
2023-02-26T19:36:42.740Z,5.65
2023-02-26T19:39:11.820Z,6.22
2023-02-26T19:41:38.391Z,12.40
2023-02-26T19:44:06.336Z,7.50
2023-02-26T19:46:32.912Z,4.20
2023-02-26T19:48:59.523Z,4.03
2023-02-26T19:51:26.395Z,3.47
2023-02-26T19:53:53.362Z,2.70
2023-02-26T19:56:19.827Z,2.03
2023-02-26T19:58:46.568Z,2.03
2023-02-26T20:01:13.243Z,2.03
2023-02-26T20:03:39.817Z,1.75
2023-02-26T20:06:08.393Z,1.75
2023-02-26T20:08:34.970Z,1.20
2023-02-26T20:11:02.467Z,1.70
2023-02-26T20:13:30.254Z,3.03
2023-02-26T20:16:00.470Z,3.00
2023-02-26T20:18:28.846Z,1.67
2023-02-26T20:20:55.470Z,1.50
2023-02-26T20:23:22.018Z,1.30
2023-02-26T20:25:50.470Z,1.65
2023-02-26T20:28:17.849Z,1.73
2023-02-26T20:30:44.730Z,3.53
2023-02-26T20:33:11.575Z,2.92
2023-02-26T20:35:38.829Z,2.22
2023-02-26T20:38:06.469Z,1.60
2023-02-26T20:40:33.091Z,2.25
2023-02-26T20:42:59.596Z,5.18
2023-02-26T20:45:26.183Z,8.25
2023-02-26T20:47:52.749Z,7.88
2023-02-26T20:50:20.333Z,9.75
2023-02-26T20:52:46.970Z,13.27
2023-02-26T20:55:13.536Z,5.43
2023-02-26T20:57:40.055Z,15.45
2023-02-26T21:00:11.098Z,24.02
2023-02-26T21:02:38.282Z,12.85
2023-02-26T21:05:05.605Z,18.20
2023-02-26T21:07:32.195Z,21.63
2023-02-26T21:09:58.836Z,5.20
2023-02-26T21:12:26.987Z,8.65
2023-02-26T21:14:58.382Z,5.70
2023-02-26T21:17:25.625Z,6.35
2023-02-26T21:19:52.402Z,3.00
2023-02-26T21:22:19.341Z,3.08
2023-02-26T21:24:46.521Z,2.50
2023-02-26T21:27:13.231Z,2.00
2023-02-26T21:29:39.891Z,1.83
2023-02-26T21:32:09.278Z,2.05
2023-02-26T21:34:36.358Z,1.55
2023-02-26T21:37:04.066Z,1.90
2023-02-26T21:39:31.147Z,1.90
2023-02-26T21:42:00.742Z,1.50
2023-02-26T21:44:27.728Z,1.75
2023-02-26T21:46:57.232Z,2.08
2023-02-26T21:49:24.406Z,2.20
2023-02-26T21:51:53.908Z,2.03
2023-02-26T21:54:20.655Z,2.58
2023-02-26T21:56:48.065Z,2.20
2023-02-26T21:59:15.161Z,2.50
2023-02-26T22:01:42.159Z,2.05
2023-02-26T22:04:12.023Z,2.35
2023-02-26T22:06:38.963Z,2.17
2023-02-26T22:09:06.208Z,2.25
2023-02-26T22:11:33.074Z,1.77
2023-02-26T22:13:59.776Z,2.40
2023-02-26T22:16:27.069Z,2.08
2023-02-26T22:18:54.476Z,2.28
2023-02-26T22:21:24.148Z,2.40
2023-02-26T22:23:51.633Z,2.30
2023-02-26T22:26:21.505Z,2.63
2023-02-26T22:28:49.693Z,2.10
2023-02-26T22:31:18.311Z,2.35
2023-02-26T22:33:45.863Z,2.42
2023-02-26T22:36:16.040Z,2.42
2023-02-26T22:38:43.038Z,2.25
2023-02-26T22:41:09.978Z,2.70
2023-02-26T22:43:37.038Z,2.13
2023-02-26T22:46:04.128Z,2.88
2023-02-26T22:48:33.580Z,2.80
2023-02-26T22:51:00.273Z,2.72
2023-02-26T22:53:27.131Z,2.47
2023-02-26T22:55:54.269Z,2.50
2023-02-26T22:58:21.222Z,2.17
2023-02-26T23:00:48.093Z,3.17
2023-02-26T23:03:15.369Z,2.85
2023-02-26T23:05:42.065Z,2.85
2023-02-26T23:08:08.763Z,2.53
2023-02-26T23:10:35.450Z,2.70
2023-02-26T23:13:03.320Z,2.80
2023-02-26T23:15:30.524Z,3.00
2023-02-26T23:17:57.601Z,2.78
2023-02-26T23:20:24.481Z,2.38
2023-02-26T23:22:51.327Z,2.97
2023-02-26T23:25:18.067Z,3.05
2023-02-26T23:27:44.767Z,2.88
2023-02-26T23:30:13.667Z,2.72
2023-02-26T23:32:40.553Z,2.17
2023-02-26T23:35:07.571Z,2.08
2023-02-26T23:37:40.173Z,2.13
2023-02-26T23:40:08.045Z,2.10
2023-02-26T23:42:34.751Z,2.38
2023-02-26T23:45:01.712Z,2.10
2023-02-26T23:47:28.272Z,1.85
2023-02-26T23:49:58.110Z,1.92
2023-02-26T23:52:28.141Z,2.20
2023-02-26T23:54:54.725Z,1.83
2023-02-26T23:57:21.243Z,2.45
2023-02-26T23:59:47.761Z,1.95
